NCAR-RAP Real-Time Weather Data

Output produced by METARs form (08 May 2021  01:48 UTC)
found at http://weather.rap.ucar.edu/surface/
 
KEPH 080053Z AUTO 32012KT 10SM CLR 16/M05 A3004 RMK AO2 SLP174 T01561050
KEPH 072353Z AUTO 30018G26KT 10SM CLR 16/M07 A3003 RMK AO2 PK WND 28030/2335 SLP170 60001 T01561067 10172 20117 53001
KEPH 072253Z AUTO 30020KT 10SM FEW065 FEW075 SCT100 14/M03 A3003 RMK AO2 RAE04B27E37 SLP170 P0001 T01391033
KEPH 072153Z AUTO 20016KT 10SM -RA FEW060 BKN100 13/M02 A3002 RMK AO2 RAE09B49 SLP166 P0000 T01331022
KEPH 072053Z AUTO 20013G28KT 10SM -RA SCT090 BKN110 13/M03 A3002 RMK AO2 PK WND 22028/2044 RAB1957E04B41 SLP169 P0000 60000 T01331028 56001
KEPH 072048Z AUTO 21016G28KT 10SM -RA FEW009 BKN095 13/M01 A3002 RMK AO2 PK WND 22028/2044 RAB1957E04B41 P0000
KEPH 071953Z AUTO 20013G22KT 10SM FEW050 BKN075 BKN100 16/M04 A3002 RMK AO2 SLP165 T01611039
KEPH 071853Z AUTO 21008KT 10SM FEW075 14/M04 A3003 RMK AO2 SLP169 T01441039
KEPH 071753Z AUTO VRB05KT 10SM SCT070 14/M04 A3003 RMK AO2 SLP169 T01441044 10144 20078 58002
KEPH 071653Z AUTO 27008KT 240V310 10SM CLR 13/M05 A3005 RMK AO2 SLP174 T01331050
KEPH 071553Z AUTO 27013G22KT 10SM CLR 13/M05 A3005 RMK AO2 SLP172 T01281050
KEPH 071453Z AUTO 26014G21KT 10SM CLR 12/M05 A3004 RMK AO2 SLP169 T01171050 52014
KEPH 071353Z AUTO VRB05KT 10SM CLR 09/M05 A3002 RMK AO2 SLP163 T00891050
KEPH 071253Z AUTO 29014KT 10SM CLR 08/M05 A3001 RMK AO2 SLP159 T00831050